Time;durP1;ratioP1;P1;durP2;ratioP2;P2;SDS_P1;SDS_P2;PMS_P1;PMS_P2;Temp;Humidity;BMP_temperature;BMP_pressure;BME280_temperature;BME280_humidity;BME280_pressure;Samples;Min_cycle;Max_cycle;Signal;HPM_P1;HPM_P2
2022/01/16 00:00:40;;;;;;;21.33;17.05;;;;;;;;;;5132485;27;24424;-58
2022/01/16 00:05:56;;;;;;;20.70;17.50;;;;;;;;;;5129191;27;24487;-58
2022/01/16 00:08:21;;;;;;;18.80;16.43;;;;;;;;;;5129606;27;24421;-58
2022/01/16 00:10:46;;;;;;;17.88;15.98;;;;;;;;;;5128322;27;24489;-58
2022/01/16 00:13:11;;;;;;;21.87;18.33;;;;;;;;;;5128415;27;24444;-58
2022/01/16 00:15:36;;;;;;;21.97;17.13;;;;;;;;;;5129092;27;25219;-58
2022/01/16 00:20:31;;;;;;;19.30;17.23;;;;;;;;;;5129260;27;24708;-59
2022/01/16 00:22:57;;;;;;;21.13;17.15;;;;;;;;;;5128804;27;24418;-58
2022/01/16 00:25:22;;;;;;;19.33;15.40;;;;;;;;;;5125316;27;24958;-59
2022/01/16 00:27:47;;;;;;;19.20;15.40;;;;;;;;;;5129034;27;24982;-57
2022/01/16 00:30:13;;;;;;;17.53;14.57;;;;;;;;;;5128550;27;24550;-57
2022/01/16 00:32:38;;;;;;;16.20;13.90;;;;;;;;;;5128265;27;24516;-58
2022/01/16 00:35:03;;;;;;;17.95;14.65;;;;;;;;;;5129660;27;24464;-58
2022/01/16 00:37:29;;;;;;;18.95;14.60;;;;;;;;;;5124639;27;24795;-58
2022/01/16 00:39:54;;;;;;;21.30;15.17;;;;;;;;;;5128466;27;25001;-58
2022/01/16 00:42:19;;;;;;;16.33;13.73;;;;;;;;;;5128017;27;24431;-58
2022/01/16 00:44:44;;;;;;;19.40;13.93;;;;;;;;;;5128399;27;24401;-59
2022/01/16 00:47:09;;;;;;;16.10;13.63;;;;;;;;;;5128188;27;24756;-58
2022/01/16 00:49:38;;;;;;;17.20;14.30;;;;;;;;;;5129205;27;24419;-58
2022/01/16 00:52:04;;;;;;;18.40;13.25;;;;;;;;;;5128705;27;24431;-58
2022/01/16 00:54:29;;;;;;;16.40;13.77;;;;;;;;;;5124476;27;25248;-58
2022/01/16 00:56:54;;;;;;;16.90;13.80;;;;;;;;;;5128506;27;24408;-57
2022/01/16 00:59:19;;;;;;;15.20;13.60;;;;;;;;;;5128121;27;24440;-59
2022/01/16 01:01:45;;;;;;;16.70;14.07;;;;;;;;;;5125897;27;24882;-58
2022/01/16 01:04:10;;;;;;;15.90;13.90;;;;;;;;;;5128225;27;24428;-58
2022/01/16 01:06:36;;;;;;;25.10;17.27;;;;;;;;;;5128722;27;24768;-58
2022/01/16 01:09:01;;;;;;;24.80;16.60;;;;;;;;;;5128583;27;24409;-58
2022/01/16 01:11:28;;;;;;;21.40;15.43;;;;;;;;;;5128304;27;25013;-58
2022/01/16 01:14:15;;;;;;;17.33;14.23;;;;;;;;;;5126018;27;24553;-58
2022/01/16 01:16:52;;;;;;;16.67;14.25;;;;;;;;;;5122185;27;24432;-59
2022/01/16 01:19:18;;;;;;;18.90;14.50;;;;;;;;;;5126130;27;24433;-58
2022/01/16 01:21:43;;;;;;;21.38;15.02;;;;;;;;;;5126757;27;24408;-60
2022/01/16 01:24:08;;;;;;;17.97;14.47;;;;;;;;;;5129116;27;24402;-58
2022/01/16 01:26:36;;;;;;;17.00;14.05;;;;;;;;;;5126225;27;24413;-58
2022/01/16 01:29:01;;;;;;;20.58;15.02;;;;;;;;;;5127507;27;24950;-57
2022/01/16 01:31:27;;;;;;;16.60;14.00;;;;;;;;;;5127649;27;24415;-58
2022/01/16 01:33:52;;;;;;;16.73;14.37;;;;;;;;;;5128248;27;24419;-57
2022/01/16 01:36:17;;;;;;;17.80;14.07;;;;;;;;;;5126076;27;24416;-60
2022/01/16 01:38:42;;;;;;;18.10;13.20;;;;;;;;;;5122367;27;24453;-60
2022/01/16 01:41:08;;;;;;;15.47;13.30;;;;;;;;;;5127759;27;24440;-58
2022/01/16 01:51:27;;;;;;;15.57;12.50;;;;;;;;;;5123623;27;24404;-58
2022/01/16 01:53:55;;;;;;;15.77;12.45;;;;;;;;;;5128089;27;24405;-58
2022/01/16 01:56:22;;;;;;;15.88;11.30;;;;;;;;;;5128013;27;24425;-59
2022/01/16 01:58:48;;;;;;;15.50;12.20;;;;;;;;;;5127300;27;25046;-58
2022/01/16 02:01:13;;;;;;;18.20;12.07;;;;;;;;;;5122948;27;24412;-58
2022/01/16 02:06:07;;;;;;;16.40;12.30;;;;;;;;;;5124008;27;24434;-59
2022/01/16 02:08:34;;;;;;;18.02;11.65;;;;;;;;;;5114246;27;24474;-58
2022/01/16 02:11:02;;;;;;;16.73;11.82;;;;;;;;;;5123096;27;25003;-58
2022/01/16 02:13:31;;;;;;;19.60;12.32;;;;;;;;;;5127026;27;24421;-58
2022/01/16 02:31:45;;;;;;;13.03;11.10;;;;;;;;;;5125901;27;24496;-59
2022/01/16 02:34:32;;;;;;;15.27;11.90;;;;;;;;;;5124841;27;24412;-59
2022/01/16 02:37:04;;;;;;;17.02;12.98;;;;;;;;;;5115243;27;24521;-59
2022/01/16 02:39:30;;;;;;;13.77;11.68;;;;;;;;;;5118895;27;24474;-59
2022/01/16 02:41:58;;;;;;;16.77;12.10;;;;;;;;;;5123451;27;24416;-59
2022/01/16 02:46:51;;;;;;;13.45;11.60;;;;;;;;;;5126898;27;24470;-59
2022/01/16 02:49:22;;;;;;;13.30;11.03;;;;;;;;;;5126309;28;24417;-57
2022/01/16 02:51:49;;;;;;;14.25;11.60;;;;;;;;;;5126946;28;24946;-58
2022/01/16 02:54:14;;;;;;;14.52;11.40;;;;;;;;;;5117917;28;24409;-58
2022/01/16 02:56:40;;;;;;;12.80;11.50;;;;;;;;;;5116668;28;24461;-58
2022/01/16 02:59:07;;;;;;;14.60;11.90;;;;;;;;;;5123172;28;24546;-57
2022/01/16 03:01:32;;;;;;;17.00;12.25;;;;;;;;;;5121247;28;24405;-58
2022/01/16 03:03:58;;;;;;;13.83;11.33;;;;;;;;;;5123145;28;24432;-57
2022/01/16 03:06:27;;;;;;;15.20;11.60;;;;;;;;;;5125813;28;24481;-58
2022/01/16 03:08:52;;;;;;;13.38;10.80;;;;;;;;;;5126119;28;24413;-58
2022/01/16 03:11:34;;;;;;;14.02;11.52;;;;;;;;;;5126173;28;24415;-57
2022/01/16 03:13:59;;;;;;;15.13;12.20;;;;;;;;;;5126403;28;24424;-58
2022/01/16 03:16:24;;;;;;;14.03;11.53;;;;;;;;;;5126186;28;24424;-59
2022/01/16 03:21:53;;;;;;;14.77;11.67;;;;;;;;;;5122766;28;24519;-59
2022/01/16 03:24:19;;;;;;;16.02;11.93;;;;;;;;;;5106688;28;24485;-58
2022/01/16 03:26:44;;;;;;;14.67;11.87;;;;;;;;;;5112408;28;24854;-58
2022/01/16 03:29:09;;;;;;;15.70;11.87;;;;;;;;;;5126235;28;24423;-58
2022/01/16 03:31:35;;;;;;;18.33;12.10;;;;;;;;;;5124904;28;24405;-58
2022/01/16 03:34:00;;;;;;;13.82;11.60;;;;;;;;;;5125695;28;24953;-57
2022/01/16 03:36:25;;;;;;;13.97;11.20;;;;;;;;;;5124506;28;24509;-58
2022/01/16 03:38:50;;;;;;;18.43;11.80;;;;;;;;;;5126535;27;24436;-58
2022/01/16 03:41:15;;;;;;;15.75;11.43;;;;;;;;;;5129950;27;25212;-58
2022/01/16 03:43:41;;;;;;;16.63;12.00;;;;;;;;;;5130238;27;24413;-58
2022/01/16 03:46:06;;;;;;;16.13;11.40;;;;;;;;;;5130080;27;24497;-57
2022/01/16 03:48:31;;;;;;;16.87;12.70;;;;;;;;;;5130104;27;24436;-58
2022/01/16 03:50:56;;;;;;;16.30;11.80;;;;;;;;;;5123499;27;24474;-58
2022/01/16 03:53:22;;;;;;;18.48;12.10;;;;;;;;;;5119976;27;24410;-57
2022/01/16 03:55:48;;;;;;;17.17;11.35;;;;;;;;;;5128959;27;24425;-57
2022/01/16 03:58:13;;;;;;;18.37;12.40;;;;;;;;;;5128145;27;24966;-58
2022/01/16 04:00:38;;;;;;;16.40;12.07;;;;;;;;;;5122835;27;24466;-58
2022/01/16 04:03:04;;;;;;;17.63;12.33;;;;;;;;;;5129667;27;24945;-58
2022/01/16 04:05:29;;;;;;;16.00;12.53;;;;;;;;;;5128494;27;24419;-58
2022/01/16 04:07:54;;;;;;;16.17;12.30;;;;;;;;;;5129787;27;24427;-58
2022/01/16 04:10:21;;;;;;;14.10;11.63;;;;;;;;;;5114971;27;24435;-58
2022/01/16 04:12:47;;;;;;;14.77;11.90;;;;;;;;;;5129114;27;24478;-58
2022/01/16 04:17:38;;;;;;;15.80;12.10;;;;;;;;;;5129759;27;24452;-57
2022/01/16 04:20:04;;;;;;;16.30;11.60;;;;;;;;;;5127844;27;24401;-58
2022/01/16 04:22:29;;;;;;;18.90;12.10;;;;;;;;;;5125088;27;24879;-58
2022/01/16 04:24:54;;;;;;;14.73;12.32;;;;;;;;;;5123866;27;24564;-57
2022/01/16 04:27:19;;;;;;;17.30;11.80;;;;;;;;;;5128461;27;24759;-58
2022/01/16 04:29:44;;;;;;;16.77;11.82;;;;;;;;;;5127772;27;24856;-57
2022/01/16 04:32:10;;;;;;;20.60;12.43;;;;;;;;;;5126628;27;25010;-58
2022/01/16 04:34:35;;;;;;;15.80;12.10;;;;;;;;;;5129543;27;24462;-58
2022/01/16 04:37:01;;;;;;;16.67;11.90;;;;;;;;;;5127954;27;24437;-59
2022/01/16 04:39:32;;;;;;;15.65;11.48;;;;;;;;;;5126056;27;24460;-58
2022/01/16 04:44:43;;;;;;;16.73;12.20;;;;;;;;;;5122658;27;24462;-58
2022/01/16 04:47:09;;;;;;;17.30;12.47;;;;;;;;;;5126597;27;24444;-58
2022/01/16 04:49:34;;;;;;;16.20;11.77;;;;;;;;;;5129148;27;24424;-58
2022/01/16 04:51:59;;;;;;;17.77;11.70;;;;;;;;;;5125429;27;24413;-58
2022/01/16 04:54:27;;;;;;;20.30;11.50;;;;;;;;;;5129205;27;24882;-58
2022/01/16 04:56:52;;;;;;;17.60;11.65;;;;;;;;;;5127325;27;24425;-58
2022/01/16 04:59:18;;;;;;;16.05;11.63;;;;;;;;;;5129466;27;24419;-59
2022/01/16 05:01:43;;;;;;;16.33;11.90;;;;;;;;;;5128419;27;24857;-59
2022/01/16 05:04:08;;;;;;;18.70;11.63;;;;;;;;;;5127990;27;25007;-59
2022/01/16 05:06:33;;;;;;;17.47;12.40;;;;;;;;;;5128744;27;24829;-59
2022/01/16 05:08:58;;;;;;;17.13;11.50;;;;;;;;;;5128904;27;24950;-58
2022/01/16 05:11:26;;;;;;;17.20;12.40;;;;;;;;;;5126277;27;25069;-59
2022/01/16 05:16:38;;;;;;;18.67;12.80;;;;;;;;;;5128361;27;24528;-59
2022/01/16 05:19:05;;;;;;;16.35;12.02;;;;;;;;;;5127392;27;24436;-58
2022/01/16 05:21:30;;;;;;;16.83;11.95;;;;;;;;;;5127914;27;24802;-58
2022/01/16 05:23:55;;;;;;;17.02;12.45;;;;;;;;;;5126524;27;25042;-57
2022/01/16 05:26:26;;;;;;;19.42;12.38;;;;;;;;;;5125845;27;24412;-57
2022/01/16 05:28:52;;;;;;;18.88;12.70;;;;;;;;;;5127885;27;24447;-58
2022/01/16 05:31:17;;;;;;;15.57;12.07;;;;;;;;;;5127378;27;24949;-58
2022/01/16 05:33:42;;;;;;;16.67;11.75;;;;;;;;;;5128591;27;24416;-58
2022/01/16 05:36:07;;;;;;;18.93;12.80;;;;;;;;;;5128026;27;24954;-58
2022/01/16 05:38:32;;;;;;;18.57;12.77;;;;;;;;;;5125396;27;24501;-58
2022/01/16 05:40:57;;;;;;;15.90;12.37;;;;;;;;;;5125497;27;25216;-58
2022/01/16 05:43:22;;;;;;;20.83;13.00;;;;;;;;;;5127626;27;24431;-58
2022/01/16 05:45:48;;;;;;;18.63;12.37;;;;;;;;;;5127762;27;25019;-58
2022/01/16 05:48:13;;;;;;;18.73;12.70;;;;;;;;;;5128184;27;24474;-58
2022/01/16 05:50:38;;;;;;;17.35;12.57;;;;;;;;;;5127706;27;25071;-58
2022/01/16 05:53:03;;;;;;;19.23;14.90;;;;;;;;;;5125996;27;24470;-58
2022/01/16 05:55:31;;;;;;;15.80;13.20;;;;;;;;;;5124810;27;24417;-58
2022/01/16 05:57:56;;;;;;;18.45;14.02;;;;;;;;;;5126781;27;24485;-58
2022/01/16 06:00:22;;;;;;;17.40;12.73;;;;;;;;;;5126963;27;24442;-58
2022/01/16 06:02:47;;;;;;;17.90;13.73;;;;;;;;;;5124262;27;24826;-58
2022/01/16 06:05:12;;;;;;;16.70;13.40;;;;;;;;;;5127161;27;24535;-58
2022/01/16 06:07:40;;;;;;;18.90;13.77;;;;;;;;;;5127612;27;24454;-58
2022/01/16 06:10:05;;;;;;;18.63;13.45;;;;;;;;;;5126777;27;24416;-56
2022/01/16 06:12:30;;;;;;;20.58;13.63;;;;;;;;;;5126538;27;24409;-58
2022/01/16 06:14:55;;;;;;;20.10;14.10;;;;;;;;;;5127559;27;24413;-57
2022/01/16 06:17:21;;;;;;;19.52;13.82;;;;;;;;;;5126798;27;24934;-57
2022/01/16 06:19:46;;;;;;;17.15;13.00;;;;;;;;;;5127577;27;24404;-58
2022/01/16 06:22:11;;;;;;;18.60;13.52;;;;;;;;;;5120282;27;24445;-58
2022/01/16 06:24:36;;;;;;;17.45;13.20;;;;;;;;;;5123924;27;25249;-58
2022/01/16 06:27:01;;;;;;;21.32;14.12;;;;;;;;;;5118446;27;24421;-58
2022/01/16 06:29:26;;;;;;;17.03;13.60;;;;;;;;;;5127694;27;24451;-58
2022/01/16 06:31:52;;;;;;;19.20;13.60;;;;;;;;;;5124143;27;24544;-58
2022/01/16 06:34:17;;;;;;;18.88;13.68;;;;;;;;;;5123878;27;24468;-58
2022/01/16 06:36:42;;;;;;;19.52;13.68;;;;;;;;;;5119318;27;24760;-59
2022/01/16 06:39:09;;;;;;;18.50;14.57;;;;;;;;;;5118848;27;24455;-58
2022/01/16 06:41:34;;;;;;;17.40;12.77;;;;;;;;;;5122818;27;24424;-58
2022/01/16 06:44:00;;;;;;;18.20;13.33;;;;;;;;;;5120900;27;24421;-58
2022/01/16 06:46:25;;;;;;;17.85;13.30;;;;;;;;;;5118232;27;24826;-59
2022/01/16 06:48:50;;;;;;;18.23;12.70;;;;;;;;;;5122905;27;24528;-56
2022/01/16 06:51:19;;;;;;;17.37;12.77;;;;;;;;;;5121730;28;24413;-58
2022/01/16 06:53:45;;;;;;;16.90;12.70;;;;;;;;;;5120167;28;24455;-59
2022/01/16 06:56:10;;;;;;;16.80;11.95;;;;;;;;;;5123170;28;24425;-59
2022/01/16 06:58:35;;;;;;;16.63;12.40;;;;;;;;;;5115472;28;24464;-59
2022/01/16 07:01:00;;;;;;;17.03;12.50;;;;;;;;;;5116594;28;24523;-59
2022/01/16 07:03:26;;;;;;;16.50;12.23;;;;;;;;;;5120093;28;25185;-59
2022/01/16 07:05:51;;;;;;;16.17;12.30;;;;;;;;;;5124321;28;24449;-58
2022/01/16 07:08:16;;;;;;;18.57;12.80;;;;;;;;;;5123412;28;24424;-59
2022/01/16 07:10:41;;;;;;;17.17;12.38;;;;;;;;;;5115175;28;24473;-58
2022/01/16 07:13:06;;;;;;;18.55;11.90;;;;;;;;;;5118017;27;24497;-58
2022/01/16 07:15:31;;;;;;;18.67;12.67;;;;;;;;;;5130300;27;24431;-59
2022/01/16 07:17:57;;;;;;;17.10;12.30;;;;;;;;;;5124627;27;24513;-58
2022/01/16 07:20:22;;;;;;;18.95;12.35;;;;;;;;;;5126742;27;24408;-58
2022/01/16 07:22:48;;;;;;;18.30;12.90;;;;;;;;;;5127078;27;25041;-58
2022/01/16 07:25:13;;;;;;;17.83;12.57;;;;;;;;;;5128702;27;24420;-57
2022/01/16 07:27:39;;;;;;;17.95;13.38;;;;;;;;;;5128770;27;24797;-58
2022/01/16 07:30:04;;;;;;;18.50;13.90;;;;;;;;;;5129390;27;24421;-57
2022/01/16 07:32:30;;;;;;;17.83;13.90;;;;;;;;;;5130500;27;24946;-58
2022/01/16 07:34:55;;;;;;;17.60;13.30;;;;;;;;;;5128906;27;24631;-57
2022/01/16 07:37:20;;;;;;;15.10;13.00;;;;;;;;;;5120854;27;24445;-57
2022/01/16 07:39:45;;;;;;;18.10;13.23;;;;;;;;;;5123205;27;24428;-58
2022/01/16 07:42:11;;;;;;;16.17;12.63;;;;;;;;;;5126367;27;24493;-58
2022/01/16 07:44:36;;;;;;;17.20;13.20;;;;;;;;;;5128983;27;24905;-57
2022/01/16 07:47:01;;;;;;;15.80;12.93;;;;;;;;;;5124426;27;24428;-59
2022/01/16 07:49:26;;;;;;;13.93;12.50;;;;;;;;;;5124087;27;24432;-59
2022/01/16 07:51:51;;;;;;;19.67;13.80;;;;;;;;;;5128605;27;24416;-59
2022/01/16 07:54:20;;;;;;;17.30;13.37;;;;;;;;;;5127557;27;24869;-59
2022/01/16 07:56:45;;;;;;;15.40;12.82;;;;;;;;;;5110555;27;24565;-58
2022/01/16 07:59:11;;;;;;;17.80;12.90;;;;;;;;;;5129225;27;24452;-60
2022/01/16 08:01:37;;;;;;;17.05;14.57;;;;;;;;;;5123080;27;24424;-60
2022/01/16 08:04:02;;;;;;;18.60;13.88;;;;;;;;;;5128011;27;24937;-59
2022/01/16 08:06:28;;;;;;;19.73;13.60;;;;;;;;;;5125516;27;24485;-59
2022/01/16 08:08:53;;;;;;;16.47;14.30;;;;;;;;;;5110662;27;24995;-58
2022/01/16 08:11:22;;;;;;;14.70;12.83;;;;;;;;;;5122537;27;24417;-59
2022/01/16 08:13:50;;;;;;;19.55;14.70;;;;;;;;;;5127125;27;24974;-58
2022/01/16 08:16:19;;;;;;;18.10;14.80;;;;;;;;;;5126557;27;24432;-59
2022/01/16 08:18:44;;;;;;;20.27;14.70;;;;;;;;;;5128819;27;24568;-58
2022/01/16 08:21:09;;;;;;;19.10;14.80;;;;;;;;;;5122529;27;25052;-58
2022/01/16 08:23:34;;;;;;;20.92;14.40;;;;;;;;;;5127228;27;24466;-58
2022/01/16 08:26:00;;;;;;;22.07;14.60;;;;;;;;;;5125666;27;24432;-58
2022/01/16 08:28:25;;;;;;;21.50;14.27;;;;;;;;;;5122499;27;24424;-59
2022/01/16 08:30:51;;;;;;;17.33;14.90;;;;;;;;;;5123484;27;24524;-59
2022/01/16 08:33:16;;;;;;;19.37;14.90;;;;;;;;;;5127379;27;24993;-59
2022/01/16 08:35:41;;;;;;;16.93;14.53;;;;;;;;;;5128112;27;24965;-58
2022/01/16 08:38:07;;;;;;;18.60;15.20;;;;;;;;;;5125795;27;24557;-59
2022/01/16 08:40:32;;;;;;;20.77;15.57;;;;;;;;;;5129135;27;24423;-58
2022/01/16 08:42:57;;;;;;;21.93;15.73;;;;;;;;;;5129034;27;24554;-57
2022/01/16 08:45:22;;;;;;;21.00;16.63;;;;;;;;;;5129100;27;24473;-58
2022/01/16 08:47:47;;;;;;;21.13;17.13;;;;;;;;;;5123906;27;24433;-57
2022/01/16 08:50:14;;;;;;;22.42;17.10;;;;;;;;;;5125529;27;24437;-57
2022/01/16 08:52:40;;;;;;;24.08;18.70;;;;;;;;;;5126103;27;24413;-58
2022/01/16 08:55:09;;;;;;;21.92;17.98;;;;;;;;;;5129344;27;24981;-57
2022/01/16 08:57:34;;;;;;;23.13;17.50;;;;;;;;;;5127873;27;24821;-59
2022/01/16 08:59:59;;;;;;;27.70;20.20;;;;;;;;;;5121145;27;24405;-58
2022/01/16 09:02:24;;;;;;;24.63;18.97;;;;;;;;;;5116717;27;24419;-58
2022/01/16 09:04:49;;;;;;;21.30;18.13;;;;;;;;;;5124924;27;24492;-58
2022/01/16 09:07:15;;;;;;;24.38;19.02;;;;;;;;;;5120889;27;24420;-59
2022/01/16 09:09:40;;;;;;;26.67;20.42;;;;;;;;;;5120360;27;24654;-58
2022/01/16 09:12:06;;;;;;;24.73;19.80;;;;;;;;;;5121293;27;24443;-60
2022/01/16 09:14:31;;;;;;;25.20;18.90;;;;;;;;;;5122412;27;24420;-59
2022/01/16 09:16:56;;;;;;;25.90;19.52;;;;;;;;;;5127307;27;24448;-59
2022/01/16 09:19:21;;;;;;;26.47;20.73;;;;;;;;;;5127286;27;25080;-60
2022/01/16 09:21:46;;;;;;;25.73;20.80;;;;;;;;;;5127754;27;24421;-62
2022/01/16 09:24:12;;;;;;;25.07;20.83;;;;;;;;;;5112351;27;24432;-58
2022/01/16 09:26:37;;;;;;;26.00;21.40;;;;;;;;;;5122851;27;24405;-60
2022/01/16 09:29:02;;;;;;;26.50;21.60;;;;;;;;;;5127545;27;24470;-60
2022/01/16 09:31:28;;;;;;;27.45;21.90;;;;;;;;;;5122728;27;24428;-59
2022/01/16 09:33:54;;;;;;;25.85;21.85;;;;;;;;;;5120987;27;24425;-59
2022/01/16 09:36:19;;;;;;;26.63;22.92;;;;;;;;;;5122278;27;24447;-58
2022/01/16 09:38:44;;;;;;;27.03;22.10;;;;;;;;;;5125869;27;24988;-60
2022/01/16 09:41:10;;;;;;;29.60;23.73;;;;;;;;;;5122558;27;24425;-59
2022/01/16 09:43:35;;;;;;;28.52;22.77;;;;;;;;;;5122628;27;25228;-59
2022/01/16 09:46:04;;;;;;;32.67;24.67;;;;;;;;;;5118255;27;24416;-58
2022/01/16 09:48:29;;;;;;;30.00;22.60;;;;;;;;;;5127125;27;24444;-58
2022/01/16 09:50:54;;;;;;;25.40;21.20;;;;;;;;;;5121211;27;24847;-59
2022/01/16 09:53:20;;;;;;;28.37;21.70;;;;;;;;;;5127418;27;25090;-59
2022/01/16 09:55:45;;;;;;;29.80;21.70;;;;;;;;;;5127763;27;24413;-58
2022/01/16 09:58:10;;;;;;;28.53;22.60;;;;;;;;;;5122190;27;24472;-59
2022/01/16 10:00:36;;;;;;;27.10;22.35;;;;;;;;;;5127728;27;24978;-59
2022/01/16 10:03:02;;;;;;;27.53;22.00;;;;;;;;;;5126778;27;24409;-59
2022/01/16 10:05:35;;;;;;;29.50;23.55;;;;;;;;;;5126204;27;24500;-56
2022/01/16 10:08:01;;;;;;;29.73;23.03;;;;;;;;;;5117614;27;24425;-59
2022/01/16 10:10:28;;;;;;;26.27;22.10;;;;;;;;;;5125051;27;24437;-59
2022/01/16 10:12:57;;;;;;;29.48;22.20;;;;;;;;;;5122103;27;24414;-59
2022/01/16 10:15:24;;;;;;;29.70;24.70;;;;;;;;;;5126311;27;24443;-59
2022/01/16 10:17:50;;;;;;;29.13;23.35;;;;;;;;;;5116192;27;24448;-59
2022/01/16 10:20:19;;;;;;;26.93;22.93;;;;;;;;;;5121320;27;24455;-58
2022/01/16 10:22:45;;;;;;;28.00;21.90;;;;;;;;;;5116673;27;24963;-59
2022/01/16 10:25:11;;;;;;;29.83;23.80;;;;;;;;;;5111385;27;24550;-60
2022/01/16 10:27:38;;;;;;;28.73;23.67;;;;;;;;;;5123490;27;24791;-59
2022/01/16 10:30:07;;;;;;;26.30;21.98;;;;;;;;;;5126435;27;24950;-59
2022/01/16 10:32:33;;;;;;;28.90;21.92;;;;;;;;;;5126669;27;24428;-60
2022/01/16 10:35:08;;;;;;;29.67;23.10;;;;;;;;;;5126794;27;24417;-59
2022/01/16 10:37:34;;;;;;;30.20;23.75;;;;;;;;;;5126308;27;25262;-59
2022/01/16 10:40:02;;;;;;;28.43;22.50;;;;;;;;;;5126336;27;24409;-60
2022/01/16 10:42:29;;;;;;;27.77;22.80;;;;;;;;;;5115992;27;24428;-60
2022/01/16 10:44:55;;;;;;;30.65;23.10;;;;;;;;;;5124599;27;24451;-60
2022/01/16 10:47:34;;;;;;;28.05;23.67;;;;;;;;;;5123825;27;24422;-60
2022/01/16 10:50:02;;;;;;;31.43;24.40;;;;;;;;;;5124918;27;24443;-60
2022/01/16 10:52:27;;;;;;;31.55;23.90;;;;;;;;;;5124551;28;25027;-58
2022/01/16 10:54:52;;;;;;;26.63;21.90;;;;;;;;;;5124807;28;24435;-58
2022/01/16 10:57:18;;;;;;;26.52;21.73;;;;;;;;;;5125382;28;24413;-58
2022/01/16 10:59:44;;;;;;;28.85;22.40;;;;;;;;;;5125149;28;25357;-58
2022/01/16 11:02:09;;;;;;;30.05;24.27;;;;;;;;;;5123091;28;24676;-58
2022/01/16 11:04:34;;;;;;;28.87;23.30;;;;;;;;;;5125618;28;25238;-58
2022/01/16 11:07:03;;;;;;;27.17;21.67;;;;;;;;;;5124635;28;24496;-58
2022/01/16 11:09:29;;;;;;;24.92;20.85;;;;;;;;;;5124758;28;24428;-58
2022/01/16 11:11:57;;;;;;;23.70;18.92;;;;;;;;;;5123792;28;24954;-58
2022/01/16 11:14:23;;;;;;;18.08;16.10;;;;;;;;;;5124858;28;24530;-58
2022/01/16 11:16:48;;;;;;;17.83;14.73;;;;;;;;;;5124468;28;25186;-57
2022/01/16 11:19:15;;;;;;;17.30;15.40;;;;;;;;;;5124966;28;24760;-58
2022/01/16 11:21:43;;;;;;;19.50;16.70;;;;;;;;;;5124928;28;24454;-58
2022/01/16 11:26:43;;;;;;;17.42;15.15;;;;;;;;;;5124626;28;24408;-58
2022/01/16 11:29:08;;;;;;;17.40;15.30;;;;;;;;;;5123098;28;24512;-58
2022/01/16 11:31:33;;;;;;;17.50;14.63;;;;;;;;;;5124725;28;24421;-57
2022/01/16 11:33:59;;;;;;;18.23;14.50;;;;;;;;;;5124728;28;24463;-57
2022/01/16 11:36:26;;;;;;;16.80;14.40;;;;;;;;;;5124757;28;24512;-57
2022/01/16 11:38:54;;;;;;;16.63;14.80;;;;;;;;;;5121140;28;24463;-57
2022/01/16 11:41:20;;;;;;;15.52;13.40;;;;;;;;;;5123345;28;24770;-57
2022/01/16 11:43:46;;;;;;;16.30;13.77;;;;;;;;;;5124187;28;24406;-57
2022/01/16 11:46:27;;;;;;;11.30;9.43;;;;;;;;;;5124199;28;24517;-58
2022/01/16 11:49:17;;;;;;;9.50;8.50;;;;;;;;;;5121574;28;24749;-57
2022/01/16 11:51:48;;;;;;;10.00;9.00;;;;;;;;;;5124343;28;25000;-59
2022/01/16 11:54:19;;;;;;;13.80;10.48;;;;;;;;;;5123041;28;24412;-58
2022/01/16 11:56:44;;;;;;;11.73;9.70;;;;;;;;;;5124849;28;24474;-58
2022/01/16 11:59:14;;;;;;;10.95;9.85;;;;;;;;;;5123881;27;24432;-58
2022/01/16 12:01:43;;;;;;;11.82;9.90;;;;;;;;;;5128438;27;24435;-57
2022/01/16 12:04:26;;;;;;;12.60;10.27;;;;;;;;;;5128249;27;24419;-58
2022/01/16 12:06:52;;;;;;;11.18;8.50;;;;;;;;;;5127723;27;24870;-59
2022/01/16 12:09:36;;;;;;;9.73;8.73;;;;;;;;;;5126579;27;24542;-58
2022/01/16 12:12:02;;;;;;;11.77;8.85;;;;;;;;;;5129079;27;24806;-58
2022/01/16 12:14:45;;;;;;;10.75;8.65;;;;;;;;;;5125068;27;24489;-58
2022/01/16 12:17:34;;;;;;;10.68;8.80;;;;;;;;;;5129286;27;24442;-58
2022/01/16 12:20:11;;;;;;;9.98;8.20;;;;;;;;;;5118098;27;24456;-58
2022/01/16 12:22:46;;;;;;;10.93;8.30;;;;;;;;;;5126860;27;24428;-58
2022/01/16 12:25:25;;;;;;;9.95;7.72;;;;;;;;;;5129089;27;24452;-58
2022/01/16 12:27:50;;;;;;;10.38;8.63;;;;;;;;;;5129326;27;24760;-58
2022/01/16 12:30:24;;;;;;;10.60;9.10;;;;;;;;;;5127836;27;24419;-59
2022/01/16 12:32:57;;;;;;;10.18;8.10;;;;;;;;;;5129002;27;24455;-59
2022/01/16 12:35:40;;;;;;;9.75;8.27;;;;;;;;;;5129396;27;24454;-58
2022/01/16 12:38:10;;;;;;;9.73;7.90;;;;;;;;;;5128500;27;24948;-59
2022/01/16 12:40:38;;;;;;;9.02;8.13;;;;;;;;;;5125895;27;24447;-59
2022/01/16 12:43:05;;;;;;;10.70;8.32;;;;;;;;;;5126418;27;24409;-59
2022/01/16 12:45:37;;;;;;;8.88;7.93;;;;;;;;;;5129319;27;24417;-59
2022/01/16 12:48:02;;;;;;;10.93;8.50;;;;;;;;;;5119599;27;24508;-59
2022/01/16 12:50:28;;;;;;;10.27;8.37;;;;;;;;;;5127623;27;25236;-59
2022/01/16 12:52:53;;;;;;;10.87;9.00;;;;;;;;;;5127182;27;24432;-59
2022/01/16 12:55:18;;;;;;;13.25;10.82;;;;;;;;;;5125760;27;24508;-58
2022/01/16 12:57:43;;;;;;;15.80;11.70;;;;;;;;;;5126941;27;24809;-58
2022/01/16 13:00:09;;;;;;;15.00;12.10;;;;;;;;;;5127041;27;24509;-58
2022/01/16 13:02:35;;;;;;;11.90;10.48;;;;;;;;;;5127338;27;24431;-58
2022/01/16 13:05:00;;;;;;;10.40;8.60;;;;;;;;;;5126768;27;25092;-58
2022/01/16 13:07:26;;;;;;;12.33;9.43;;;;;;;;;;5125448;27;24516;-57
2022/01/16 13:09:51;;;;;;;9.55;8.45;;;;;;;;;;5125678;27;24450;-58
2022/01/16 13:12:16;;;;;;;12.23;10.52;;;;;;;;;;5126180;27;25035;-60
2022/01/16 13:14:42;;;;;;;13.60;11.50;;;;;;;;;;5125228;27;24441;-59
2022/01/16 13:17:10;;;;;;;14.25;11.50;;;;;;;;;;5126262;27;24420;-59
2022/01/16 13:19:49;;;;;;;11.93;10.50;;;;;;;;;;5122368;27;24429;-59
2022/01/16 13:22:15;;;;;;;13.57;10.57;;;;;;;;;;5126632;27;24405;-59
2022/01/16 13:24:47;;;;;;;12.43;10.75;;;;;;;;;;5124265;27;24416;-59
2022/01/16 13:27:14;;;;;;;15.23;11.43;;;;;;;;;;5123868;27;24527;-59
2022/01/16 13:29:42;;;;;;;13.63;10.52;;;;;;;;;;5126335;27;24509;-58
2022/01/16 13:32:08;;;;;;;13.27;11.02;;;;;;;;;;5124922;27;24428;-57
2022/01/16 13:34:35;;;;;;;14.30;11.38;;;;;;;;;;5126706;27;25066;-57
2022/01/16 13:37:01;;;;;;;13.85;12.15;;;;;;;;;;5124123;27;24477;-58
2022/01/16 13:39:32;;;;;;;15.53;12.03;;;;;;;;;;5126249;27;24582;-58
2022/01/16 13:42:17;;;;;;;14.35;11.68;;;;;;;;;;5124106;27;24768;-59
2022/01/16 13:44:42;;;;;;;12.30;9.68;;;;;;;;;;5126354;27;24420;-58
2022/01/16 13:47:07;;;;;;;12.93;11.07;;;;;;;;;;5122314;27;24417;-59
2022/01/16 13:49:33;;;;;;;14.90;11.10;;;;;;;;;;5120598;27;24429;-60
2022/01/16 13:52:07;;;;;;;12.80;11.00;;;;;;;;;;5121842;27;24459;-59
2022/01/16 13:54:32;;;;;;;13.05;10.35;;;;;;;;;;5104451;27;24417;-58
2022/01/16 13:57:00;;;;;;;13.10;11.53;;;;;;;;;;5123013;27;25114;-58
2022/01/16 13:59:25;;;;;;;14.15;11.88;;;;;;;;;;5113923;27;24534;-59
2022/01/16 14:01:51;;;;;;;13.73;12.13;;;;;;;;;;5120849;27;24527;-58
2022/01/16 14:04:16;;;;;;;15.40;11.77;;;;;;;;;;5123657;27;24414;-58
2022/01/16 14:06:50;;;;;;;15.73;13.87;;;;;;;;;;5123586;27;24417;-58
2022/01/16 14:09:16;;;;;;;15.43;12.68;;;;;;;;;;5120625;27;24409;-58
2022/01/16 14:11:46;;;;;;;13.90;12.00;;;;;;;;;;5123716;27;24428;-59
2022/01/16 14:14:12;;;;;;;13.65;12.10;;;;;;;;;;5124059;27;24458;-59
2022/01/16 14:16:52;;;;;;;14.68;11.93;;;;;;;;;;5117956;27;24429;-57
2022/01/16 14:19:20;;;;;;;14.35;11.75;;;;;;;;;;5116445;27;25069;-58
2022/01/16 14:22:10;;;;;;;14.88;11.35;;;;;;;;;;5120883;27;24520;-59
2022/01/16 14:24:45;;;;;;;13.23;11.60;;;;;;;;;;5121401;27;24489;-58
2022/01/16 14:27:11;;;;;;;12.15;10.85;;;;;;;;;;5122024;27;24417;-58
2022/01/16 14:29:38;;;;;;;13.20;11.55;;;;;;;;;;5120429;27;24417;-58
2022/01/16 14:32:03;;;;;;;12.45;11.00;;;;;;;;;;5122385;27;24976;-59
2022/01/16 14:34:29;;;;;;;12.90;11.50;;;;;;;;;;5120390;27;24439;-58
2022/01/16 14:36:55;;;;;;;13.40;10.50;;;;;;;;;;5120963;27;24456;-58
2022/01/16 14:39:22;;;;;;;12.67;10.50;;;;;;;;;;5117966;27;25007;-58
2022/01/16 14:41:49;;;;;;;12.15;10.52;;;;;;;;;;5118952;27;25160;-59
2022/01/16 14:44:15;;;;;;;11.45;10.10;;;;;;;;;;5121686;27;24829;-57
2022/01/16 14:46:41;;;;;;;12.75;11.20;;;;;;;;;;5122093;27;24428;-58
2022/01/16 14:49:06;;;;;;;11.87;10.13;;;;;;;;;;5120822;27;25183;-58
2022/01/16 14:51:33;;;;;;;15.70;12.60;;;;;;;;;;5121519;27;24425;-58
2022/01/16 14:53:58;;;;;;;20.15;15.65;;;;;;;;;;5120904;27;25052;-59
2022/01/16 14:56:23;;;;;;;16.40;13.87;;;;;;;;;;5120935;28;24510;-58
2022/01/16 14:58:49;;;;;;;14.27;12.40;;;;;;;;;;5121983;28;24444;-59
2022/01/16 15:01:14;;;;;;;16.30;14.03;;;;;;;;;;5119501;28;24987;-59
2022/01/16 15:03:40;;;;;;;14.17;11.47;;;;;;;;;;5121824;28;24417;-59